Escuta Aérea – Aeroporto Internacional de Fortaleza

METAR: 

SBFZ 252200Z 07006KT 9999 FEW020 BKN100 28/23 Q1012

TAF: 

TAF TAF SBFZ 251600Z 2518/2618 09012KT 8000 SCT020 TN25/2608Z TX31/2615Z BECMG 2521/2522 10005KT BECMG 2601/2603 16005KT BECMG 2610/2612 10012KT RM K PEI

A escuta poderá ser executada automaticamente